createdAt,value
2022-10-13T00:01:23.392Z,13.50
2022-10-13T00:04:10.371Z,13.45
2022-10-13T00:06:57.395Z,13.42
2022-10-13T00:09:44.398Z,13.45
2022-10-13T00:12:24.925Z,13.39
2022-10-13T00:15:11.408Z,13.41
2022-10-13T00:17:59.368Z,13.43
2022-10-13T00:20:39.451Z,13.38
2022-10-13T00:23:26.458Z,13.44
2022-10-13T00:26:10.474Z,13.37
2022-10-13T00:28:57.397Z,13.32
2022-10-13T00:31:45.348Z,13.35
2022-10-13T00:34:25.714Z,13.38
2022-10-13T00:37:12.334Z,13.41
2022-10-13T00:39:59.338Z,13.36
2022-10-13T00:42:46.381Z,13.31
2022-10-13T00:45:36.337Z,13.26
2022-10-13T00:48:23.346Z,13.22
2022-10-13T00:51:11.329Z,13.25
2022-10-13T00:53:53.485Z,13.23
2022-10-13T00:56:43.372Z,13.27
2022-10-13T00:59:41.313Z,13.22
2022-10-13T01:02:30.332Z,13.20
2022-10-13T01:05:14.422Z,13.19
2022-10-13T01:08:02.320Z,13.21
2022-10-13T01:11:10.329Z,13.11
2022-10-13T01:13:59.873Z,13.09
2022-10-13T01:17:05.295Z,13.07
2022-10-13T01:19:56.760Z,13.02
2022-10-13T01:23:10.307Z,13.07
2022-10-13T01:26:36.256Z,13.14
2022-10-13T01:29:20.424Z,13.10
2022-10-13T01:32:39.297Z,13.09
2022-10-13T01:35:50.469Z,13.13
2022-10-13T01:38:55.287Z,13.08
2022-10-13T01:41:57.392Z,13.08
2022-10-13T01:44:50.260Z,13.08
2022-10-13T01:47:32.422Z,13.01
2022-10-13T01:50:23.282Z,13.00
2022-10-13T01:53:08.401Z,12.98
2022-10-13T01:56:01.250Z,12.90
2022-10-13T01:58:44.375Z,12.82
2022-10-13T02:02:11.234Z,12.77
2022-10-13T02:04:59.272Z,12.72
2022-10-13T02:07:57.857Z,12.67
2022-10-13T02:10:54.196Z,12.66
2022-10-13T02:13:36.937Z,12.59
2022-10-13T02:16:24.212Z,12.58
2022-10-13T02:19:07.050Z,12.57
2022-10-13T02:21:55.249Z,12.54
2022-10-13T02:24:36.001Z,12.53
2022-10-13T02:27:16.219Z,12.52
2022-10-13T02:30:04.319Z,12.47
2022-10-13T02:32:44.216Z,12.44
2022-10-13T02:35:31.210Z,12.46
2022-10-13T02:38:19.220Z,12.45
2022-10-13T02:41:02.105Z,12.44
2022-10-13T02:43:49.195Z,12.44
2022-10-13T02:46:39.213Z,12.42
2022-10-13T02:49:19.332Z,12.35
2022-10-13T02:52:06.197Z,12.39
2022-10-13T02:54:48.297Z,12.36
2022-10-13T02:57:35.165Z,12.32
2022-10-13T03:00:21.293Z,12.27
2022-10-13T03:03:08.146Z,12.27
2022-10-13T03:25:54.484Z,11.69
2022-10-13T03:28:41.561Z,11.92
2022-10-13T03:31:21.571Z,12.08
2022-10-13T03:34:19.497Z,12.28
2022-10-13T03:37:08.468Z,12.43
2022-10-13T03:39:56.448Z,12.53
2022-10-13T03:42:43.490Z,12.60
2022-10-13T03:45:23.890Z,12.64
2022-10-13T03:48:03.506Z,12.65
2022-10-13T03:50:51.440Z,12.74
2022-10-13T03:53:32.199Z,12.66
2022-10-13T03:56:19.480Z,12.66
2022-10-13T03:59:01.151Z,12.74
2022-10-13T04:01:47.540Z,12.69
2022-10-13T04:04:27.851Z,12.70
2022-10-13T04:07:14.477Z,12.76
2022-10-13T04:09:54.813Z,12.76
2022-10-13T04:12:41.465Z,12.66
2022-10-13T04:15:21.841Z,12.67
2022-10-13T04:18:08.422Z,12.65
2022-10-13T04:20:48.843Z,12.60
2022-10-13T04:23:35.456Z,12.48
2022-10-13T04:26:22.009Z,12.45
2022-10-13T04:29:09.440Z,12.37
2022-10-13T04:31:50.324Z,12.31
2022-10-13T04:34:37.422Z,12.29
2022-10-13T04:37:17.808Z,12.20
2022-10-13T04:40:04.451Z,12.18
2022-10-13T04:42:44.943Z,12.20
2022-10-13T04:45:31.426Z,12.17
2022-10-13T04:48:18.507Z,12.27
2022-10-13T04:51:06.414Z,12.29
2022-10-13T04:53:53.379Z,12.43
2022-10-13T04:56:34.380Z,12.48
2022-10-13T04:59:21.410Z,12.55
2022-10-13T05:02:03.321Z,12.61
2022-10-13T05:04:50.389Z,12.68
2022-10-13T05:07:38.401Z,12.78
2022-10-13T05:10:18.510Z,12.85
2022-10-13T05:13:05.409Z,12.96
2022-10-13T05:15:46.464Z,13.07
2022-10-13T05:18:35.352Z,13.24
2022-10-13T05:21:52.371Z,13.38
2022-10-13T05:24:47.436Z,13.56
2022-10-13T05:27:27.733Z,13.57
2022-10-13T05:30:18.357Z,13.89
2022-10-13T05:32:58.849Z,14.16
2022-10-13T05:35:45.322Z,14.12
2022-10-13T05:38:26.254Z,14.17
2022-10-13T05:41:21.372Z,14.40
2022-10-13T05:44:11.353Z,14.70
2022-10-13T05:47:07.765Z,15.77
2022-10-13T05:49:47.685Z,18.01
2022-10-13T05:52:37.368Z,18.79
2022-10-13T05:55:19.164Z,20.26
2022-10-13T05:58:06.289Z,21.32
2022-10-13T06:00:47.151Z,21.10
2022-10-13T06:03:37.289Z,23.31
2022-10-13T06:06:26.824Z,24.30
2022-10-13T06:09:10.394Z,24.56
2022-10-13T06:11:57.311Z,26.65
2022-10-13T06:14:37.453Z,26.98
2022-10-13T06:17:24.312Z,28.18
2022-10-13T06:20:06.173Z,26.22
2022-10-13T06:22:53.285Z,28.75
2022-10-13T06:25:47.285Z,28.28
2022-10-13T06:28:27.892Z,28.37
2022-10-13T06:31:14.288Z,29.55
2022-10-13T06:34:01.314Z,29.96
2022-10-13T06:36:42.236Z,30.51
2022-10-13T06:39:29.280Z,28.62
2022-10-13T06:42:17.569Z,29.44
2022-10-13T06:45:14.547Z,29.27
2022-10-13T06:48:01.289Z,27.02
2022-10-13T06:50:43.026Z,28.00
2022-10-13T06:53:30.262Z,27.86
2022-10-13T06:56:10.992Z,26.77
2022-10-13T06:58:57.287Z,26.01
2022-10-13T07:01:46.278Z,26.15
2022-10-13T07:04:35.279Z,25.21
2022-10-13T07:07:29.258Z,26.15
2022-10-13T07:10:16.348Z,25.57
2022-10-13T07:12:56.265Z,24.62
2022-10-13T07:15:46.266Z,26.47
2022-10-13T07:18:26.342Z,26.18
2022-10-13T07:21:13.218Z,26.94
2022-10-13T07:24:00.232Z,27.93
2022-10-13T07:26:40.647Z,28.78
2022-10-13T07:29:27.239Z,29.19
2022-10-13T07:32:14.222Z,29.64
2022-10-13T07:35:01.246Z,28.82
2022-10-13T07:37:41.620Z,28.15
2022-10-13T07:40:28.255Z,29.92
2022-10-13T07:43:15.236Z,31.41
2022-10-13T07:46:02.212Z,31.24
2022-10-13T07:48:49.233Z,28.85
2022-10-13T07:51:30.305Z,28.78
2022-10-13T07:54:17.184Z,28.15
2022-10-13T07:57:08.236Z,28.50
2022-10-13T07:59:55.200Z,27.74
2022-10-13T08:02:45.350Z,27.21
2022-10-13T08:05:32.184Z,27.87
2022-10-13T08:08:19.165Z,27.26
2022-10-13T08:11:05.009Z,27.47
2022-10-13T08:13:52.185Z,27.31
2022-10-13T08:16:39.198Z,26.27
2022-10-13T08:19:22.154Z,28.30
2022-10-13T08:22:09.843Z,27.68
2022-10-13T08:24:56.258Z,29.26
2022-10-13T08:27:50.747Z,29.67
2022-10-13T08:30:32.293Z,29.51
2022-10-13T08:33:19.161Z,28.59
2022-10-13T08:36:06.167Z,29.74
2022-10-13T08:38:46.298Z,28.79
2022-10-13T08:41:45.207Z,30.71
2022-10-13T08:45:16.082Z,29.57
2022-10-13T08:48:19.182Z,29.72
2022-10-13T08:51:07.570Z,28.65
2022-10-13T08:53:57.141Z,28.52
2022-10-13T08:56:37.528Z,28.69
2022-10-13T08:59:28.165Z,29.65
2022-10-13T09:02:22.688Z,28.95
2022-10-13T09:05:11.134Z,29.27
2022-10-13T09:07:57.461Z,28.65
2022-10-13T09:10:44.084Z,27.34
2022-10-13T09:13:28.506Z,27.41
2022-10-13T09:16:15.133Z,26.42
2022-10-13T09:19:02.131Z,26.32
2022-10-13T09:21:49.086Z,25.79
2022-10-13T09:24:36.079Z,25.25
2022-10-13T09:27:22.225Z,25.43
2022-10-13T09:30:32.113Z,25.49
2022-10-13T09:33:22.108Z,26.08
2022-10-13T09:36:09.108Z,24.75
2022-10-13T09:39:29.085Z,24.00
2022-10-13T09:42:32.084Z,23.48
2022-10-13T09:45:27.286Z,23.40
2022-10-13T09:48:23.106Z,22.90
2022-10-13T09:51:11.092Z,23.02
2022-10-13T09:53:51.661Z,23.00
2022-10-13T09:57:00.090Z,24.64
2022-10-13T09:59:46.135Z,25.01
2022-10-13T10:02:44.099Z,24.40
2022-10-13T10:05:57.389Z,24.24
2022-10-13T10:09:04.608Z,24.48
2022-10-13T10:11:47.827Z,24.26
2022-10-13T10:14:43.040Z,23.48
2022-10-13T10:17:59.067Z,23.42
2022-10-13T10:20:54.227Z,23.85
2022-10-13T10:23:44.068Z,24.04
2022-10-13T10:26:48.087Z,24.43
2022-10-13T10:29:50.011Z,23.33
2022-10-13T10:32:51.052Z,23.33
2022-10-13T10:36:03.997Z,22.65
2022-10-13T10:38:59.074Z,21.83
2022-10-13T10:42:26.046Z,21.67
2022-10-13T10:45:18.055Z,21.78
2022-10-13T10:48:03.074Z,22.78
2022-10-13T10:50:50.066Z,22.98
2022-10-13T10:53:48.570Z,23.40
2022-10-13T10:57:01.025Z,22.79
2022-10-13T10:59:44.240Z,22.65
2022-10-13T11:03:14.041Z,23.10
2022-10-13T11:06:04.090Z,22.86
2022-10-13T11:09:01.996Z,23.19
2022-10-13T11:11:43.142Z,24.05
2022-10-13T11:14:43.999Z,23.33
2022-10-13T11:17:36.031Z,23.08
2022-10-13T11:20:28.144Z,22.93
2022-10-13T11:23:15.007Z,22.49
2022-10-13T11:26:27.071Z,22.16
2022-10-13T11:29:08.400Z,22.24
2022-10-13T11:31:54.694Z,21.87
2022-10-13T11:34:44.979Z,21.75
2022-10-13T11:37:55.693Z,21.53
2022-10-13T11:40:56.941Z,22.34
2022-10-13T11:44:06.000Z,21.84
2022-10-13T11:47:09.127Z,21.40
2022-10-13T11:50:13.954Z,20.48
2022-10-13T11:53:37.978Z,20.16
2022-10-13T11:56:48.520Z,19.85
2022-10-13T11:59:38.950Z,19.31
2022-10-13T12:02:19.561Z,19.23
2022-10-13T12:05:31.088Z,19.08
2022-10-13T12:08:11.069Z,19.17
2022-10-13T12:11:03.955Z,19.44
2022-10-13T12:13:44.038Z,19.45
2022-10-13T12:16:30.936Z,19.28
2022-10-13T12:19:28.039Z,19.36
2022-10-13T12:22:18.935Z,19.21
2022-10-13T12:25:17.957Z,19.38
2022-10-13T12:28:03.419Z,19.23
2022-10-13T12:30:49.895Z,19.02
2022-10-13T12:33:41.888Z,18.84
2022-10-13T12:36:34.885Z,18.95
2022-10-13T12:39:22.902Z,19.11
2022-10-13T12:42:11.952Z,18.76
2022-10-13T12:44:52.533Z,18.59
2022-10-13T12:47:58.937Z,18.54
2022-10-13T12:50:45.911Z,18.52
2022-10-13T12:53:34.991Z,18.41
2022-10-13T12:56:37.923Z,18.60
2022-10-13T12:59:26.974Z,18.84
2022-10-13T13:02:30.885Z,18.83
2022-10-13T13:05:50.806Z,18.49
2022-10-13T13:08:40.004Z,18.08
2022-10-13T13:11:43.154Z,18.10
2022-10-13T13:14:38.885Z,18.14
2022-10-13T13:17:57.679Z,17.99
2022-10-13T13:20:33.918Z,18.05
2022-10-13T13:23:30.770Z,18.31
2022-10-13T13:26:32.197Z,18.41
2022-10-13T13:29:12.264Z,18.36
2022-10-13T13:31:58.828Z,18.36
2022-10-13T13:34:45.876Z,18.21
2022-10-13T13:37:48.049Z,18.23
2022-10-13T13:40:34.881Z,18.27
2022-10-13T13:43:25.868Z,18.20
2022-10-13T13:46:07.998Z,17.65
2022-10-13T13:48:54.839Z,17.94
2022-10-13T13:51:41.795Z,17.89
2022-10-13T13:54:21.965Z,17.61
2022-10-13T13:57:08.819Z,17.79
2022-10-13T13:59:56.825Z,17.95
2022-10-13T14:02:46.197Z,17.91
2022-10-13T14:05:32.827Z,17.86
2022-10-13T14:08:13.222Z,17.72
2022-10-13T14:10:59.784Z,17.60
2022-10-13T14:13:46.822Z,17.49
2022-10-13T14:16:40.806Z,17.41
2022-10-13T14:19:27.805Z,17.36
2022-10-13T14:22:09.583Z,17.45
2022-10-13T14:24:56.773Z,17.38
2022-10-13T14:27:45.880Z,17.38
2022-10-13T14:30:25.766Z,17.33
2022-10-13T14:33:12.815Z,17.19
2022-10-13T14:35:52.878Z,17.28
2022-10-13T14:38:40.811Z,17.22
2022-10-13T14:41:21.086Z,17.12
2022-10-13T14:44:07.755Z,17.12
2022-10-13T14:46:58.753Z,16.90
2022-10-13T14:49:45.782Z,16.94
2022-10-13T14:52:25.863Z,16.92
2022-10-13T14:55:12.765Z,16.78
2022-10-13T14:57:59.756Z,16.75
2022-10-13T15:00:43.043Z,16.74
2022-10-13T15:03:29.764Z,16.65
2022-10-13T15:06:24.742Z,16.51
2022-10-13T15:09:04.887Z,16.41
2022-10-13T15:27:31.907Z,15.65
2022-10-13T15:30:19.051Z,15.71
2022-10-13T15:32:59.894Z,15.74
2022-10-13T15:35:40.284Z,15.87
2022-10-13T15:38:26.899Z,15.87
2022-10-13T15:41:07.969Z,15.87
2022-10-13T15:43:54.930Z,15.84
2022-10-13T15:46:35.284Z,15.84
2022-10-13T15:49:21.860Z,15.77
2022-10-13T15:52:02.344Z,15.74
2022-10-13T15:54:48.813Z,15.73
2022-10-13T15:57:37.860Z,15.78
2022-10-13T16:00:19.933Z,15.83
2022-10-13T16:03:06.847Z,15.73
2022-10-13T16:05:48.918Z,15.82
2022-10-13T16:08:35.830Z,15.80
2022-10-13T16:11:28.827Z,15.73
2022-10-13T16:14:15.774Z,15.78
2022-10-13T16:17:02.847Z,15.72
2022-10-13T16:19:49.825Z,15.77
2022-10-13T16:22:29.913Z,15.67
2022-10-13T16:25:17.802Z,15.69
2022-10-13T16:28:05.833Z,15.66
2022-10-13T16:30:46.210Z,15.61
2022-10-13T16:33:32.791Z,15.58
2022-10-13T16:36:22.791Z,15.46
2022-10-13T16:39:02.914Z,15.46
2022-10-13T16:41:51.775Z,15.42
2022-10-13T16:44:31.915Z,15.47
2022-10-13T16:47:19.021Z,15.43
2022-10-13T16:49:58.882Z,15.35
2022-10-13T16:52:45.790Z,15.29
2022-10-13T16:55:32.795Z,15.33
2022-10-13T16:58:19.805Z,15.32
2022-10-13T17:01:06.803Z,15.20
2022-10-13T17:03:56.768Z,15.27
2022-10-13T17:06:39.414Z,15.19
2022-10-13T17:09:25.753Z,15.06
2022-10-13T17:12:05.840Z,15.09
2022-10-13T17:14:54.760Z,15.01
2022-10-13T17:17:35.079Z,14.97
2022-10-13T17:20:22.766Z,14.93
2022-10-13T17:23:02.898Z,14.89
2022-10-13T17:25:49.730Z,14.88
2022-10-13T17:28:30.888Z,14.81
2022-10-13T17:31:22.740Z,14.78
2022-10-13T17:34:09.745Z,14.79
2022-10-13T17:36:56.722Z,14.71
2022-10-13T17:39:36.814Z,14.74
2022-10-13T17:42:23.726Z,14.68
2022-10-13T17:45:10.688Z,14.61
2022-10-13T17:47:51.674Z,14.59
2022-10-13T17:50:38.722Z,14.51
2022-10-13T17:53:25.703Z,14.50
2022-10-13T17:56:06.812Z,14.47
2022-10-13T17:58:54.685Z,14.46
2022-10-13T18:01:48.765Z,14.41
2022-10-13T18:04:29.921Z,14.36
2022-10-13T18:07:16.690Z,14.36
2022-10-13T18:10:03.683Z,14.33
2022-10-13T18:12:44.271Z,14.38
2022-10-13T18:15:30.673Z,14.30
2022-10-13T18:18:19.725Z,14.36
2022-10-13T18:21:07.607Z,14.32
2022-10-13T18:23:57.644Z,14.30
2022-10-13T18:26:44.672Z,14.26
2022-10-13T18:29:24.754Z,14.21
2022-10-13T18:32:11.670Z,14.23
2022-10-13T18:34:51.756Z,14.22
2022-10-13T18:37:38.657Z,14.22
2022-10-13T18:40:25.637Z,14.20
2022-10-13T18:43:06.004Z,14.23
2022-10-13T18:45:52.642Z,14.19
2022-10-13T18:48:33.441Z,14.18
2022-10-13T18:51:23.659Z,14.14
2022-10-13T18:54:05.303Z,14.14
2022-10-13T18:56:51.608Z,14.12
2022-10-13T18:59:32.102Z,14.13
2022-10-13T19:02:18.734Z,14.15
2022-10-13T19:05:05.640Z,14.09
2022-10-13T19:07:45.690Z,14.05
2022-10-13T19:10:32.586Z,14.03
2022-10-13T19:13:12.756Z,14.02
2022-10-13T19:16:10.664Z,13.98
2022-10-13T19:18:57.619Z,13.96
2022-10-13T19:21:47.742Z,13.97
2022-10-13T19:24:32.689Z,13.90
2022-10-13T19:27:26.595Z,13.92
2022-10-13T19:30:09.283Z,13.98
2022-10-13T19:32:58.614Z,13.94
2022-10-13T19:35:45.959Z,13.95
2022-10-13T19:38:32.579Z,13.93
2022-10-13T19:41:15.081Z,13.95
2022-10-13T19:44:03.561Z,13.97
2022-10-13T19:47:01.567Z,13.99
2022-10-13T19:49:47.723Z,13.95
2022-10-13T19:52:36.893Z,14.01
2022-10-13T19:55:16.714Z,14.01
2022-10-13T19:58:14.562Z,13.99
2022-10-13T20:00:54.787Z,13.99
2022-10-13T20:03:44.708Z,14.01
2022-10-13T20:06:32.531Z,14.07
2022-10-13T20:09:16.657Z,14.08
2022-10-13T20:12:04.655Z,14.09
2022-10-13T20:14:46.992Z,14.06
2022-10-13T20:17:33.533Z,14.11
2022-10-13T20:20:23.598Z,14.16
2022-10-13T20:23:11.496Z,14.28
2022-10-13T20:25:59.873Z,14.37
2022-10-13T20:28:50.581Z,14.33
2022-10-13T20:31:37.547Z,14.36
2022-10-13T20:34:24.498Z,14.41
2022-10-13T20:37:04.892Z,14.46
2022-10-13T20:39:51.472Z,14.46
2022-10-13T20:42:38.518Z,14.51
2022-10-13T20:45:18.639Z,14.59
2022-10-13T20:48:05.483Z,14.60
2022-10-13T20:50:45.620Z,14.65
2022-10-13T20:53:32.488Z,14.67
2022-10-13T20:56:13.576Z,14.71
2022-10-13T20:59:00.485Z,14.75
2022-10-13T21:01:40.641Z,14.68
2022-10-13T21:04:27.496Z,14.75
2022-10-13T21:07:07.562Z,14.75
2022-10-13T21:09:55.450Z,14.79
2022-10-13T21:12:42.459Z,14.74
2022-10-13T21:15:24.870Z,14.76
2022-10-13T21:18:11.464Z,14.70
2022-10-13T21:20:58.453Z,14.71
2022-10-13T21:23:38.719Z,14.70
2022-10-13T21:26:29.460Z,14.68
2022-10-13T21:29:12.646Z,14.65
2022-10-13T21:31:59.461Z,14.61
2022-10-13T21:34:39.590Z,14.71
2022-10-13T21:37:26.438Z,14.70
2022-10-13T21:40:07.507Z,14.69
2022-10-13T21:42:54.434Z,14.67
2022-10-13T21:45:34.502Z,14.63
2022-10-13T21:48:21.502Z,14.68
2022-10-13T21:51:01.496Z,14.63
2022-10-13T21:53:48.401Z,14.61
2022-10-13T21:56:36.416Z,14.59
2022-10-13T21:59:16.758Z,14.53
2022-10-13T22:02:03.443Z,14.40
2022-10-13T22:04:43.753Z,14.42
2022-10-13T22:07:30.419Z,14.36
2022-10-13T22:10:10.857Z,14.30
2022-10-13T22:12:57.409Z,14.32
2022-10-13T22:15:37.867Z,14.24
2022-10-13T22:18:28.410Z,14.10
2022-10-13T22:21:15.769Z,14.06
2022-10-13T22:24:02.364Z,14.00
2022-10-13T22:26:57.548Z,13.93
2022-10-13T22:29:37.763Z,14.02
2022-10-13T22:32:24.365Z,14.01
2022-10-13T22:35:05.307Z,14.02
2022-10-13T22:37:52.395Z,14.03
2022-10-13T22:40:32.810Z,14.02
2022-10-13T22:43:19.354Z,13.93
2022-10-13T22:46:03.350Z,13.85
2022-10-13T22:48:50.350Z,13.62
2022-10-13T22:51:32.589Z,13.37
2022-10-13T22:54:19.382Z,13.31
2022-10-13T22:56:59.730Z,13.25
2022-10-13T22:59:46.344Z,13.23
2022-10-13T23:02:33.371Z,13.18
2022-10-13T23:05:13.476Z,13.05
2022-10-13T23:08:00.357Z,13.02
2022-10-13T23:10:40.436Z,12.95
2022-10-13T23:13:27.310Z,12.97
2022-10-13T23:16:16.300Z,12.90
2022-10-13T23:19:03.357Z,12.88
2022-10-13T23:21:43.410Z,12.93
2022-10-13T23:24:30.307Z,12.99
2022-10-13T23:27:24.334Z,13.01
2022-10-13T23:30:05.846Z,12.99
2022-10-13T23:32:52.304Z,13.08
2022-10-13T23:35:32.654Z,13.19
2022-10-13T23:38:19.318Z,13.21
2022-10-13T23:41:08.606Z,13.19
2022-10-13T23:43:56.260Z,13.05
2022-10-13T23:46:43.290Z,13.00
2022-10-13T23:49:24.446Z,13.06
2022-10-13T23:52:11.304Z,13.00
2022-10-13T23:54:51.421Z,12.91
2022-10-13T23:57:40.289Z,13.00
